Jolly Good — V7UG7 — position and weather

sailwx.info

Track history (hours):
 
Tides and Currents Weather Stations Pressure Air Temp Water Temp Dewpoint Dewpoint Depression Visibility Wind Speed Wind Dir Waves Ship Positions

Jolly Good

Last reported at 2017-Dec-11 08:51 UTC. Time now 2017-Dec-12 10:13 UTC.
Position N 38°04' W 009°53'.

Length 190 m; draft 10.7 m.

Type: Cargo ship. MMSI: 538007006.

Date/timePositionNaut miles runAvg speedWind from/ knotsBaromVisibWave heightAir tempDewpointWater temp
2017-Dec-11 08:51N 38°04' W 009°53'1310.6
2017-Dec-11 07:37N 38°17' W 009°58'110.5
2017-Dec-11 07:30N 38°18' W 009°58'510.9
2017-Dec-11 07:00N 38°23' W 010°01'510.8
2017-Dec-11 06:30N 38°28' W 010°03'510.8
2017-Dec-11 06:00N 38°33' W 010°04'611.4
2017-Dec-11 05:31N 38°39' W 010°06'510.1
2017-Dec-11 05:01N 38°44' W 010°07'4 8.6
2017-Dec-11 04:31N 38°48' W 010°06'5 9.2
2017-Dec-11 04:00N 38°53' W 010°06'4 8.8
2017-Dec-11 03:31N 38°57' W 010°05'5 9.1
2017-Dec-11 03:00N 39°02' W 010°04'4 8.9
2017-Dec-11 02:31N 39°06' W 010°04'5 9.2
2017-Dec-11 02:00N 39°11' W 010°04'5 9.3
2017-Dec-11 01:30N 39°15' W 010°04'  
2017-Dec-08 01:45N 49°45' W 003°37'311.0
2017-Dec-08 01:28N 49°46' W 003°33'510.3
2017-Dec-08 01:01N 49°49' W 003°27'5 9.6
2017-Dec-08 00:31N 49°51' W 003°20'6 9.3
2017-Dec-07 23:55N 49°54' W 003°13'4 8.9
2017-Dec-07 23:31N 49°56' W 003°08'4 8.9
2017-Dec-07 23:01N 49°58' W 003°02'4 8.0
2017-Dec-07 22:29N 50°00' W 002°57'3 6.9
2017-Dec-07 21:59N 50°01' W 002°52'3 7.0
2017-Dec-07 21:31N 50°02' W 002°47'7 7.5
2017-Dec-07 20:33N 50°04' W 002°36'5311.5
2017-Dec-07 15:57N 50°18' W 001°16'36 9.4
2017-Dec-07 12:05N 50°29' W 000°22'0 4.8
2017-Dec-07 12:00N 50°29' W 000°22'2 4.3
2017-Dec-07 11:30N 50°29' W 000°18'2 3.1
2017-Dec-07 11:01N 50°30' W 000°16'1 3.0
2017-Dec-07 10:30N 50°30' W 000°14'2 3.1
2017-Dec-07 10:00N 50°30' W 000°11'2 3.5
2017-Dec-07 09:31N 50°31' W 000°09'2 4.5
2017-Dec-07 09:00N 50°31' W 000°05'2 5.0
2017-Dec-07 08:30N 50°32' W 000°01'3 6.1
2017-Dec-07 08:01N 50°33' E 000°03'4 7.4
2017-Dec-07 07:30N 50°34' E 000°09'4 8.0
2017-Dec-07 07:00N 50°35' E 000°15'4 8.4
2017-Dec-07 06:30N 50°36' E 000°21'4 8.9
2017-Dec-07 06:01N 50°37' E 000°28'5 9.0
2017-Dec-07 05:30N 50°39' E 000°35'5 9.2
2017-Dec-07 05:01N 50°41' E 000°41'4 8.9
2017-Dec-07 04:31N 50°44' E 000°46'4 8.4
2017-Dec-07 04:00N 50°46' E 000°52'4 8.2
2017-Dec-07 03:31N 50°49' E 000°57'4 7.6
2017-Dec-07 03:00N 50°51' E 001°02'4 7.5
2017-Dec-07 02:30N 50°53' E 001°07'4 7.2
2017-Dec-07 02:00N 50°56' E 001°11'4 7.0
2017-Dec-07 01:30N 50°58' E 001°15'3 6.4
2017-Dec-07 01:00N 51°00' E 001°19'3 7.0
2017-Dec-07 00:30N 51°02' E 001°23'4 7.6
2017-Dec-07 00:00N 51°05' E 001°28'4 8.7
2017-Dec-06 23:31N 51°07' E 001°34'510.1
2017-Dec-06 23:01N 51°10' E 001°40'612.2
2017-Dec-06 22:30N 51°14' E 001°47'612.9
2017-Dec-06 22:01N 51°20' E 001°52'612.9
2017-Dec-06 21:31N 51°25' E 001°58'612.2
2017-Dec-06 21:01N 51°30' E 002°04'  
2017-Dec-04 10:22N 57°41' E 010°40'0 0.0
2017-Dec-04 09:55N 57°41' E 010°40'0 0.0
2017-Dec-04 09:28N 57°41' E 010°40'0 0.0
2017-Dec-04 08:58N 57°41' E 010°40'0 0.0
2017-Dec-04 08:28N 57°41' E 010°40'0 0.3
2017-Dec-04 08:00N 57°41' E 010°40'2 4.0
2017-Dec-04 07:30N 57°42' E 010°43'4 7.1
2017-Dec-04 07:01N 57°45' E 010°46'5 9.9
2017-Dec-04 06:30N 57°49' E 010°42'510.3
2017-Dec-04 06:00N 57°54' E 010°40'612.4
2017-Dec-04 05:30N 58°00' E 010°35'612.4
2017-Dec-04 05:00N 58°06' E 010°31'2312.2
2017-Dec-04 03:07N 58°27' E 010°13'212.3
2017-Dec-04 02:58N 58°29' E 010°11'512.1
2017-Dec-04 02:30N 58°34' E 010°07'611.8
2017-Dec-04 02:00N 58°39' E 010°03'612.2
2017-Dec-04 01:30N 58°45' E 009°58'612.0
2017-Dec-04 01:00N 58°50' E 009°53'4 8.4
2017-Dec-04 00:30N 58°54' E 009°50'5 9.9
2017-Dec-04 00:00N 58°59' E 009°47'3 5.7
2017-Dec-03 23:29N 59°02' E 009°47'4 8.3
2017-Dec-03 23:00N 59°03' E 009°40'4 8.2
2017-Dec-03 22:30N 59°07' E 009°37'0 0.5
2017-Dec-03 22:00N 59°07' E 009°37'0 0.0
2017-Dec-03 21:30N 59°07' E 009°37'0 0.0
2017-Dec-03 21:00N 59°07' E 009°37'0 0.0
2017-Dec-03 20:30N 59°07' E 009°37'0 0.0
2017-Dec-03 20:00N 59°07' E 009°37'0 0.0
2017-Dec-03 19:30N 59°07' E 009°37'0 0.0
2017-Dec-03 19:00N 59°07' E 009°37'0 0.0
2017-Dec-03 18:30N 59°07' E 009°37'0 0.0
2017-Dec-03 18:00N 59°07' E 009°37'0 0.0
2017-Dec-03 17:30N 59°07' E 009°37'0 0.0
2017-Dec-03 17:00N 59°07' E 009°37'0 0.0
2017-Dec-03 16:30N 59°07' E 009°37'0 0.0
2017-Dec-03 16:00N 59°07' E 009°37'0 0.0
2017-Dec-03 15:30N 59°07' E 009°37'0 0.0
2017-Dec-03 15:00N 59°07' E 009°37'0 0.0
2017-Dec-03 14:30N 59°07' E 009°37'0 0.0
2017-Dec-03 14:00N 59°07' E 009°37'0 0.0
2017-Dec-03 13:30N 59°07' E 009°37'0 0.0
2017-Dec-03 13:00N 59°07' E 009°37'0 0.0
2017-Dec-03 12:30N 59°07' E 009°37'0 0.0
2017-Dec-03 12:00N 59°07' E 009°37'0 0.0
2017-Dec-03 11:30N 59°07' E 009°37'0 0.0
2017-Dec-03 11:00N 59°07' E 009°37'0 0.0
2017-Dec-03 10:30N 59°07' E 009°37'0 0.0
2017-Dec-03 10:00N 59°07' E 009°37'0 0.0
2017-Dec-03 09:30N 59°07' E 009°37'0 0.0
2017-Dec-03 09:00N 59°07' E 009°37'0 0.0
2017-Dec-03 08:30N 59°07' E 009°37'0 0.0
2017-Dec-03 08:00N 59°07' E 009°37'0 0.0
2017-Dec-03 07:30N 59°07' E 009°37'0 0.0
2017-Dec-03 07:00N 59°07' E 009°37'0 0.0
2017-Dec-03 06:30N 59°07' E 009°37'0 0.0
2017-Dec-03 06:00N 59°07' E 009°37'0 0.0
2017-Dec-03 05:30N 59°07' E 009°37'0 0.0
2017-Dec-03 05:00N 59°07' E 009°37'0 0.0
2017-Dec-03 04:30N 59°07' E 009°37'0 0.0
2017-Dec-03 04:00N 59°07' E 009°37'0 0.0
2017-Dec-03 03:30N 59°07' E 009°37'0 0.0
2017-Dec-03 03:00N 59°07' E 009°37'0 0.0
2017-Dec-03 02:30N 59°07' E 009°37'0 0.0
2017-Dec-03 02:00N 59°07' E 009°37'0 0.0
2017-Dec-03 01:30N 59°07' E 009°37'0 0.0
2017-Dec-03 01:00N 59°07' E 009°37'0 0.0
2017-Dec-03 00:30N 59°07' E 009°37'0 0.0
2017-Dec-03 00:00N 59°07' E 009°37'0 0.0
2017-Dec-02 23:30N 59°07' E 009°37'0 0.0
2017-Dec-02 23:00N 59°07' E 009°37'0 0.0
2017-Dec-02 22:30N 59°07' E 009°37'0 0.0
2017-Dec-02 22:00N 59°07' E 009°37'0 0.0
2017-Dec-02 21:30N 59°07' E 009°37'0 0.0
2017-Dec-02 21:00N 59°07' E 009°37'0 0.0
2017-Dec-02 20:30N 59°07' E 009°37'0 0.0
2017-Dec-02 20:00N 59°07' E 009°37'0 0.0
2017-Dec-02 19:30N 59°07' E 009°37'0 0.0
2017-Dec-02 19:00N 59°07' E 009°37'0 0.0
2017-Dec-02 18:30N 59°07' E 009°37'0 0.0
2017-Dec-02 18:00N 59°07' E 009°37'0 0.0
2017-Dec-02 17:30N 59°07' E 009°37'0 0.0
2017-Dec-02 17:00N 59°07' E 009°37'0 0.0
2017-Dec-02 16:30N 59°07' E 009°37'0 0.0
2017-Dec-02 16:00N 59°07' E 009°37'0 0.0
2017-Dec-02 15:30N 59°07' E 009°37'0 0.0
2017-Dec-02 15:00N 59°07' E 009°37'0 0.0
2017-Dec-02 14:30N 59°07' E 009°37'0 0.0
2017-Dec-02 14:00N 59°07' E 009°37'0 0.0
2017-Dec-02 13:30N 59°07' E 009°37'0 0.0
2017-Dec-02 13:00N 59°07' E 009°37'0 0.0
2017-Dec-02 12:30N 59°07' E 009°37'0 0.0
2017-Dec-02 12:00N 59°07' E 009°37'0 0.0
2017-Dec-02 11:30N 59°07' E 009°37'0 0.0
2017-Dec-02 11:00N 59°07' E 009°37'0 0.0
2017-Dec-02 10:30N 59°07' E 009°37'0 0.0
2017-Dec-02 10:00N 59°07' E 009°37'0 0.0
2017-Dec-02 09:30N 59°07' E 009°37'0 0.0
2017-Dec-02 09:00N 59°07' E 009°37'0 0.0
2017-Dec-02 08:30N 59°07' E 009°37'0 0.0
2017-Dec-02 08:00N 59°07' E 009°37'0 0.0
2017-Dec-02 07:30N 59°07' E 009°37'0 0.0
2017-Dec-02 07:00N 59°07' E 009°37'0 0.0
2017-Dec-02 06:30N 59°07' E 009°37'0 0.0
2017-Dec-02 06:00N 59°07' E 009°37'0 0.0
2017-Dec-02 05:30N 59°07' E 009°37'0 0.0
2017-Dec-02 05:00N 59°07' E 009°37'0 0.0
2017-Dec-02 04:30N 59°07' E 009°37'0 0.0
2017-Dec-02 04:00N 59°07' E 009°37'0 0.0
2017-Dec-02 03:30N 59°07' E 009°37'0 0.0
2017-Dec-02 03:00N 59°07' E 009°37'0 0.0
2017-Dec-02 02:30N 59°07' E 009°37'0 0.0
2017-Dec-02 02:00N 59°07' E 009°37'0 0.0
2017-Dec-02 01:30N 59°07' E 009°37'0 0.0
2017-Dec-02 01:00N 59°07' E 009°37'0 0.0
2017-Dec-02 00:30N 59°07' E 009°37'0 0.0
2017-Dec-02 00:00N 59°07' E 009°37'0 0.0
2017-Dec-01 23:30N 59°07' E 009°37'0 0.0
2017-Dec-01 23:00N 59°07' E 009°37'0 0.0
2017-Dec-01 22:27N 59°07' E 009°37'0 0.0
2017-Dec-01 22:00N 59°07' E 009°37'0 0.0
2017-Dec-01 21:30N 59°07' E 009°37'0 0.0
2017-Dec-01 21:00N 59°07' E 009°37'0 0.0
2017-Dec-01 20:30N 59°07' E 009°37'0 0.0
2017-Dec-01 20:00N 59°07' E 009°37'0 0.0
2017-Dec-01 19:30N 59°07' E 009°37'0 0.0
2017-Dec-01 19:00N 59°07' E 009°37'0 0.0
2017-Dec-01 18:30N 59°07' E 009°37'0 0.0
2017-Dec-01 18:00N 59°07' E 009°37'0 0.0
2017-Dec-01 17:30N 59°07' E 009°37'0 0.0
2017-Dec-01 17:00N 59°07' E 009°37'0 0.0
2017-Dec-01 16:30N 59°07' E 009°37'0 0.0
2017-Dec-01 16:00N 59°07' E 009°37'0 0.0
2017-Dec-01 15:30N 59°07' E 009°37'0 0.0
2017-Dec-01 15:00N 59°07' E 009°37'0 0.0
2017-Dec-01 14:30N 59°07' E 009°37'0 0.0
2017-Dec-01 14:00N 59°07' E 009°37'0 0.0
2017-Dec-01 13:30N 59°07' E 009°37'0 0.0
2017-Dec-01 13:00N 59°07' E 009°37'0 0.0
2017-Dec-01 12:30N 59°07' E 009°37'0 0.0
2017-Dec-01 12:00N 59°07' E 009°37'0 0.0
2017-Dec-01 11:30N 59°07' E 009°37'0 0.0
2017-Dec-01 11:00N 59°07' E 009°37'0 0.0
2017-Dec-01 10:30N 59°07' E 009°37'0 0.0
2017-Dec-01 10:00N 59°07' E 009°37'0 0.0
2017-Dec-01 09:30N 59°07' E 009°37'0 0.0
2017-Dec-01 09:00N 59°07' E 009°37'  
Track history (hours):
 
Tides and Currents Weather Stations Pressure Air Temp Water Temp Dewpoint Dewpoint Depression Visibility Wind Speed Wind Dir Waves Ship Positions

Jolly Good

Last reported at 2017-Dec-11 08:51 UTC. Time now 2017-Dec-12 10:13 UTC.
Position N 38°04' W 009°53'.

Length 190 m; draft 10.7 m.

Type: Cargo ship. MMSI: 538007006.

Date/timePositionNaut miles runAvg speedWind from/ knotsBaromVisibWave heightAir tempDewpointWater temp
2017-Dec-11 08:51N 38°04' W 009°53'1310.6
2017-Dec-11 07:37N 38°17' W 009°58'110.5
2017-Dec-11 07:30N 38°18' W 009°58'510.9
2017-Dec-11 07:00N 38°23' W 010°01'510.8
2017-Dec-11 06:30N 38°28' W 010°03'510.8
2017-Dec-11 06:00N 38°33' W 010°04'611.4
2017-Dec-11 05:31N 38°39' W 010°06'510.1
2017-Dec-11 05:01N 38°44' W 010°07'4 8.6
2017-Dec-11 04:31N 38°48' W 010°06'5 9.2
2017-Dec-11 04:00N 38°53' W 010°06'4 8.8
2017-Dec-11 03:31N 38°57' W 010°05'5 9.1
2017-Dec-11 03:00N 39°02' W 010°04'4 8.9
2017-Dec-11 02:31N 39°06' W 010°04'5 9.2
2017-Dec-11 02:00N 39°11' W 010°04'5 9.3
2017-Dec-11 01:30N 39°15' W 010°04'  
2017-Dec-08 01:45N 49°45' W 003°37'311.0
2017-Dec-08 01:28N 49°46' W 003°33'510.3
2017-Dec-08 01:01N 49°49' W 003°27'5 9.6
2017-Dec-08 00:31N 49°51' W 003°20'6 9.3
2017-Dec-07 23:55N 49°54' W 003°13'4 8.9
2017-Dec-07 23:31N 49°56' W 003°08'4 8.9
2017-Dec-07 23:01N 49°58' W 003°02'4 8.0
2017-Dec-07 22:29N 50°00' W 002°57'3 6.9
2017-Dec-07 21:59N 50°01' W 002°52'3 7.0
2017-Dec-07 21:31N 50°02' W 002°47'7 7.5
2017-Dec-07 20:33N 50°04' W 002°36'5311.5
2017-Dec-07 15:57N 50°18' W 001°16'36 9.4
2017-Dec-07 12:05N 50°29' W 000°22'0 4.8
2017-Dec-07 12:00N 50°29' W 000°22'2 4.3
2017-Dec-07 11:30N 50°29' W 000°18'2 3.1
2017-Dec-07 11:01N 50°30' W 000°16'1 3.0
2017-Dec-07 10:30N 50°30' W 000°14'2 3.1
2017-Dec-07 10:00N 50°30' W 000°11'2 3.5
2017-Dec-07 09:31N 50°31' W 000°09'2 4.5
2017-Dec-07 09:00N 50°31' W 000°05'2 5.0
2017-Dec-07 08:30N 50°32' W 000°01'3 6.1
2017-Dec-07 08:01N 50°33' E 000°03'4 7.4
2017-Dec-07 07:30N 50°34' E 000°09'4 8.0
2017-Dec-07 07:00N 50°35' E 000°15'4 8.4
2017-Dec-07 06:30N 50°36' E 000°21'4 8.9
2017-Dec-07 06:01N 50°37' E 000°28'5 9.0
2017-Dec-07 05:30N 50°39' E 000°35'5 9.2
2017-Dec-07 05:01N 50°41' E 000°41'4 8.9
2017-Dec-07 04:31N 50°44' E 000°46'4 8.4
2017-Dec-07 04:00N 50°46' E 000°52'4 8.2
2017-Dec-07 03:31N 50°49' E 000°57'4 7.6
2017-Dec-07 03:00N 50°51' E 001°02'4 7.5
2017-Dec-07 02:30N 50°53' E 001°07'4 7.2
2017-Dec-07 02:00N 50°56' E 001°11'4 7.0
2017-Dec-07 01:30N 50°58' E 001°15'3 6.4
2017-Dec-07 01:00N 51°00' E 001°19'3 7.0
2017-Dec-07 00:30N 51°02' E 001°23'4 7.6
2017-Dec-07 00:00N 51°05' E 001°28'4 8.7
2017-Dec-06 23:31N 51°07' E 001°34'510.1
2017-Dec-06 23:01N 51°10' E 001°40'612.2
2017-Dec-06 22:30N 51°14' E 001°47'612.9
2017-Dec-06 22:01N 51°20' E 001°52'612.9
2017-Dec-06 21:31N 51°25' E 001°58'612.2
2017-Dec-06 21:01N 51°30' E 002°04'  
2017-Dec-04 10:22N 57°41' E 010°40'0 0.0
2017-Dec-04 09:55N 57°41' E 010°40'0 0.0
2017-Dec-04 09:28N 57°41' E 010°40'0 0.0
2017-Dec-04 08:58N 57°41' E 010°40'0 0.0
2017-Dec-04 08:28N 57°41' E 010°40'0 0.3
2017-Dec-04 08:00N 57°41' E 010°40'2 4.0
2017-Dec-04 07:30N 57°42' E 010°43'4 7.1
2017-Dec-04 07:01N 57°45' E 010°46'5 9.9
2017-Dec-04 06:30N 57°49' E 010°42'510.3
2017-Dec-04 06:00N 57°54' E 010°40'612.4
2017-Dec-04 05:30N 58°00' E 010°35'612.4
2017-Dec-04 05:00N 58°06' E 010°31'2312.2
2017-Dec-04 03:07N 58°27' E 010°13'212.3
2017-Dec-04 02:58N 58°29' E 010°11'512.1
2017-Dec-04 02:30N 58°34' E 010°07'611.8
2017-Dec-04 02:00N 58°39' E 010°03'612.2
2017-Dec-04 01:30N 58°45' E 009°58'612.0
2017-Dec-04 01:00N 58°50' E 009°53'4 8.4
2017-Dec-04 00:30N 58°54' E 009°50'5 9.9
2017-Dec-04 00:00N 58°59' E 009°47'3 5.7
2017-Dec-03 23:29N 59°02' E 009°47'4 8.3
2017-Dec-03 23:00N 59°03' E 009°40'4 8.2
2017-Dec-03 22:30N 59°07' E 009°37'0 0.5
2017-Dec-03 22:00N 59°07' E 009°37'0 0.0
2017-Dec-03 21:30N 59°07' E 009°37'0 0.0
2017-Dec-03 21:00N 59°07' E 009°37'0 0.0
2017-Dec-03 20:30N 59°07' E 009°37'0 0.0
2017-Dec-03 20:00N 59°07' E 009°37'0 0.0
2017-Dec-03 19:30N 59°07' E 009°37'0 0.0
2017-Dec-03 19:00N 59°07' E 009°37'0 0.0
2017-Dec-03 18:30N 59°07' E 009°37'0 0.0
2017-Dec-03 18:00N 59°07' E 009°37'0 0.0
2017-Dec-03 17:30N 59°07' E 009°37'0 0.0
2017-Dec-03 17:00N 59°07' E 009°37'0 0.0
2017-Dec-03 16:30N 59°07' E 009°37'0 0.0
2017-Dec-03 16:00N 59°07' E 009°37'0 0.0
2017-Dec-03 15:30N 59°07' E 009°37'0 0.0
2017-Dec-03 15:00N 59°07' E 009°37'0 0.0
2017-Dec-03 14:30N 59°07' E 009°37'0 0.0
2017-Dec-03 14:00N 59°07' E 009°37'0 0.0
2017-Dec-03 13:30N 59°07' E 009°37'0 0.0
2017-Dec-03 13:00N 59°07' E 009°37'0 0.0
2017-Dec-03 12:30N 59°07' E 009°37'0 0.0
2017-Dec-03 12:00N 59°07' E 009°37'0 0.0
2017-Dec-03 11:30N 59°07' E 009°37'0 0.0
2017-Dec-03 11:00N 59°07' E 009°37'0 0.0
2017-Dec-03 10:30N 59°07' E 009°37'0 0.0
2017-Dec-03 10:00N 59°07' E 009°37'0 0.0
2017-Dec-03 09:30N 59°07' E 009°37'0 0.0
2017-Dec-03 09:00N 59°07' E 009°37'0 0.0
2017-Dec-03 08:30N 59°07' E 009°37'0 0.0
2017-Dec-03 08:00N 59°07' E 009°37'0 0.0
2017-Dec-03 07:30N 59°07' E 009°37'0 0.0
2017-Dec-03 07:00N 59°07' E 009°37'0 0.0
2017-Dec-03 06:30N 59°07' E 009°37'0 0.0
2017-Dec-03 06:00N 59°07' E 009°37'0 0.0
2017-Dec-03 05:30N 59°07' E 009°37'0 0.0
2017-Dec-03 05:00N 59°07' E 009°37'0 0.0
2017-Dec-03 04:30N 59°07' E 009°37'0 0.0
2017-Dec-03 04:00N 59°07' E 009°37'0 0.0
2017-Dec-03 03:30N 59°07' E 009°37'0 0.0
2017-Dec-03 03:00N 59°07' E 009°37'0 0.0
2017-Dec-03 02:30N 59°07' E 009°37'0 0.0
2017-Dec-03 02:00N 59°07' E 009°37'0 0.0
2017-Dec-03 01:30N 59°07' E 009°37'0 0.0
2017-Dec-03 01:00N 59°07' E 009°37'0 0.0
2017-Dec-03 00:30N 59°07' E 009°37'0 0.0
2017-Dec-03 00:00N 59°07' E 009°37'0 0.0
2017-Dec-02 23:30N 59°07' E 009°37'0 0.0
2017-Dec-02 23:00N 59°07' E 009°37'0 0.0
2017-Dec-02 22:30N 59°07' E 009°37'0 0.0
2017-Dec-02 22:00N 59°07' E 009°37'0 0.0
2017-Dec-02 21:30N 59°07' E 009°37'0 0.0
2017-Dec-02 21:00N 59°07' E 009°37'0 0.0
2017-Dec-02 20:30N 59°07' E 009°37'0 0.0
2017-Dec-02 20:00N 59°07' E 009°37'0 0.0
2017-Dec-02 19:30N 59°07' E 009°37'0 0.0
2017-Dec-02 19:00N 59°07' E 009°37'0 0.0
2017-Dec-02 18:30N 59°07' E 009°37'0 0.0
2017-Dec-02 18:00N 59°07' E 009°37'0 0.0
2017-Dec-02 17:30N 59°07' E 009°37'0 0.0
2017-Dec-02 17:00N 59°07' E 009°37'0 0.0
2017-Dec-02 16:30N 59°07' E 009°37'0 0.0
2017-Dec-02 16:00N 59°07' E 009°37'0 0.0
2017-Dec-02 15:30N 59°07' E 009°37'0 0.0
2017-Dec-02 15:00N 59°07' E 009°37'0 0.0
2017-Dec-02 14:30N 59°07' E 009°37'0 0.0
2017-Dec-02 14:00N 59°07' E 009°37'0 0.0
2017-Dec-02 13:30N 59°07' E 009°37'0 0.0
2017-Dec-02 13:00N 59°07' E 009°37'0 0.0
2017-Dec-02 12:30N 59°07' E 009°37'0 0.0
2017-Dec-02 12:00N 59°07' E 009°37'0 0.0
2017-Dec-02 11:30N 59°07' E 009°37'0 0.0
2017-Dec-02 11:00N 59°07' E 009°37'0 0.0
2017-Dec-02 10:30N 59°07' E 009°37'0 0.0
2017-Dec-02 10:00N 59°07' E 009°37'0 0.0
2017-Dec-02 09:30N 59°07' E 009°37'0 0.0
2017-Dec-02 09:00N 59°07' E 009°37'0 0.0
2017-Dec-02 08:30N 59°07' E 009°37'0 0.0
2017-Dec-02 08:00N 59°07' E 009°37'0 0.0
2017-Dec-02 07:30N 59°07' E 009°37'0 0.0
2017-Dec-02 07:00N 59°07' E 009°37'0 0.0
2017-Dec-02 06:30N 59°07' E 009°37'0 0.0
2017-Dec-02 06:00N 59°07' E 009°37'0 0.0
2017-Dec-02 05:30N 59°07' E 009°37'0 0.0
2017-Dec-02 05:00N 59°07' E 009°37'0 0.0
2017-Dec-02 04:30N 59°07' E 009°37'0 0.0
2017-Dec-02 04:00N 59°07' E 009°37'0 0.0
2017-Dec-02 03:30N 59°07' E 009°37'0 0.0
2017-Dec-02 03:00N 59°07' E 009°37'0 0.0
2017-Dec-02 02:30N 59°07' E 009°37'0 0.0
2017-Dec-02 02:00N 59°07' E 009°37'0 0.0
2017-Dec-02 01:30N 59°07' E 009°37'0 0.0
2017-Dec-02 01:00N 59°07' E 009°37'0 0.0
2017-Dec-02 00:30N 59°07' E 009°37'0 0.0
2017-Dec-02 00:00N 59°07' E 009°37'0 0.0
2017-Dec-01 23:30N 59°07' E 009°37'0 0.0
2017-Dec-01 23:00N 59°07' E 009°37'0 0.0
2017-Dec-01 22:27N 59°07' E 009°37'0 0.0
2017-Dec-01 22:00N 59°07' E 009°37'0 0.0
2017-Dec-01 21:30N 59°07' E 009°37'0 0.0
2017-Dec-01 21:00N 59°07' E 009°37'0 0.0
2017-Dec-01 20:30N 59°07' E 009°37'0 0.0
2017-Dec-01 20:00N 59°07' E 009°37'0 0.0
2017-Dec-01 19:30N 59°07' E 009°37'0 0.0
2017-Dec-01 19:00N 59°07' E 009°37'0 0.0
2017-Dec-01 18:30N 59°07' E 009°37'0 0.0
2017-Dec-01 18:00N 59°07' E 009°37'0 0.0
2017-Dec-01 17:30N 59°07' E 009°37'0 0.0
2017-Dec-01 17:00N 59°07' E 009°37'0 0.0
2017-Dec-01 16:30N 59°07' E 009°37'0 0.0
2017-Dec-01 16:00N 59°07' E 009°37'0 0.0
2017-Dec-01 15:30N 59°07' E 009°37'0 0.0
2017-Dec-01 15:00N 59°07' E 009°37'0 0.0
2017-Dec-01 14:30N 59°07' E 009°37'0 0.0
2017-Dec-01 14:00N 59°07' E 009°37'0 0.0
2017-Dec-01 13:30N 59°07' E 009°37'0 0.0
2017-Dec-01 13:00N 59°07' E 009°37'0 0.0
2017-Dec-01 12:30N 59°07' E 009°37'0 0.0
2017-Dec-01 12:00N 59°07' E 009°37'0 0.0
2017-Dec-01 11:30N 59°07' E 009°37'0 0.0
2017-Dec-01 11:00N 59°07' E 009°37'0 0.0
2017-Dec-01 10:30N 59°07' E 009°37'0 0.0
2017-Dec-01 10:00N 59°07' E 009°37'0 0.0
2017-Dec-01 09:30N 59°07' E 009°37'0 0.0
2017-Dec-01 09:00N 59°07' E 009°37'  

Dump ship's entire track history